Latest Coastal Weather Observations for Friendly Beaches

IDT60701

Issued at 11:41 am EST Monday 25 May 2015 (issued every 10 minutes, with the page automatically refreshed every 10 minutes)

About coastal observations | Map of coastal stations | Coastal observations for TAS | Marine services | Other Formats
Station Details ID: 092114 Name: FRIENDLY BEACHES Lat: -42.00 Lon: 148.28 Height: 55.0 m
Data from the previous 72 hours. | See also: Recent months at Friendly Beaches
Date/Time
EST
Temp

°C
Wind Pressure Rain
since 9am
mm
Weather Cloud Vis
km
Sea
Height
m
Swell
Dir
 
Speed
knots
Gust
knots
hPa Trend Height
m
Period
s
Dir
25/11:00am 12.2 WNW 2 3 1028.1 - 0.0 - - - - - - -
25/10:30am 11.7 W 3 5 1028.4 - 0.0 - - - - - - -
25/10:00am 10.4 WNW 5 7 1028.3 - 0.0 - - - - - - -
25/09:30am 9.5 WNW 5 7 1028.4 - 0.0 - - - - - - -
25/09:00am 7.5 W 5 7 1028.5 - 0.0 - - - - - - -
25/08:30am 6.7 WNW 6 8 1028.5 - 0.0 - - - - - - -
25/08:00am 6.1 WNW 6 8 1028.6 - 0.0 - - - - - - -
25/07:30am 5.8 W 6 7 1028.8 - 0.0 - - - - - - -
25/07:00am 5.8 W 4 5 1028.6 - 0.0 - - - - - - -
25/06:30am 6.2 WNW 6 8 1028.5 - 0.0 - - - - - - -
25/06:00am 5.8 WNW 5 7 1028.4 - 0.0 - - - - - - -
25/05:30am 6.1 W 6 9 1028.3 - 0.0 - - - - - - -
25/05:00am 5.5 W 5 6 1028.3 - 0.0 - - - - - - -
25/04:30am 5.4 W 5 6 1028.2 - 0.0 - - - - - - -
25/04:00am 5.1 W 3 5 1028.1 - 0.0 - - - - - - -
25/03:30am 5.4 W 5 7 1028.1 - 0.0 - - - - - - -
25/03:00am 5.2 W 5 7 1028.3 - 0.0 - - - - - - -
25/02:30am 6.0 W 5 7 1028.4 - 0.0 - - - - - - -
25/02:00am 5.7 W 6 9 1028.3 - 0.0 - - - - - - -
25/01:30am 5.9 W 8 11 1028.2 - 0.0 - - - - - - -
25/01:00am 6.3 W 8 11 1028.1 - 0.0 - - - - - - -
25/12:30am 6.5 W 7 10 1028.1 - 0.0 - - - - - - -
25/12:00am 6.6 W 7 9 1028.1 - 0.0 - - - - - - -
 
Date/Time
EST
Temp

°C
Wind Pressure Rain
since 9am
mm
Weather Cloud Vis
km
Sea
Height
m
Swell
Dir
 
Speed
knots
Gust
knots
hPa Trend Height
m
Period
s
Dir
24/11:30pm 7.1 W 7 10 1028.2 - 0.0 - - - - - - -
24/11:00pm 7.0 W 6 9 1028.2 - 0.0 - - - - - - -
24/10:30pm 6.7 W 7 8 1028.2 - 0.0 - - - - - - -
24/10:00pm 6.7 WNW 6 8 1028.3 - 0.0 - - - - - - -
24/09:30pm 6.8 WNW 7 8 1028.4 - 0.0 - - - - - - -
24/09:00pm 7.0 WNW 6 7 1028.3 - 0.0 - - - - - - -
24/08:30pm 7.0 WNW 6 7 1028.4 - 0.0 - - - - - - -
24/08:00pm 7.2 WNW 6 8 1028.5 - 0.0 - - - - - - -
24/07:30pm 7.5 WNW 5 7 1028.4 - 0.0 - - - - - - -
24/07:00pm 7.8 WNW 5 6 1028.3 - 0.0 - - - - - - -
24/06:30pm 8.7 WNW 3 3 1028.2 - 0.0 - - - - - - -
24/06:00pm 8.7 NW 2 3 1028.1 - 0.0 - - - - - - -
24/05:30pm 8.7 NNW 2 2 1028.0 - 0.0 - - - - - - -
24/05:00pm 9.7 N 4 6 1027.9 - 0.0 - - - - - - -
24/04:30pm 10.1 N 4 7 1027.9 - 0.0 - - - - - - -
24/04:00pm 10.5 NNE 5 7 1027.8 - 0.0 - - - - - - -
24/03:30pm 11.3 NNE 6 9 1027.9 - 0.0 - - - - - - -
24/03:00pm 12.4 NE 5 9 1028.0 - 0.0 - - - - - - -
24/02:30pm 13.5 NE 5 8 1028.0 - 0.0 - - - - - - -
24/02:00pm 13.2 NE 6 9 1028.0 - 0.0 - - - - - - -
24/01:30pm 12.5 NE 5 9 1028.3 - 0.0 - - - - - - -
24/01:00pm 12.2 ENE 5 8 1028.5 - 0.0 - - - - - - -
24/12:30pm 12.8 ENE 5 8 1028.8 - 0.0 - - - - - - -
24/12:00pm 11.9 E 3 5 1029.2 - 0.0 - - - - - - -
24/11:30am 10.6 WNW 2 3 1029.7 - 0.0 - - - - - - -
24/11:00am 9.8 WNW 3 4 1030.0 - 0.0 - - - - - - -
24/10:30am 8.2 WNW 4 5 1030.0 - 0.0 - - - - - - -
24/10:00am 6.7 WNW 5 6 1030.2 - 0.0 - - - - - - -
24/09:30am 5.3 WNW 5 6 1030.0 - 0.0 - - - - - - -
24/09:00am 4.5 WNW 6 6 1030.0 - 0.0 - - - - - - -
24/08:30am 2.9 WNW 7 8 1030.0 - 0.0 - - - - - - -
24/08:00am 1.1 WNW 7 8 1029.7 - 0.0 - - - - - - -
24/07:30am 1.5 NW 6 7 1029.5 - 0.0 - - - - - - -
24/07:00am 1.1 WNW 7 8 1029.4 - 0.0 - - - - - - -
24/06:30am 0.1 W 7 9 1029.5 - 0.0 - - - - - - -
24/06:00am 0.5 WNW 5 6 1029.0 - 0.0 - - - - - - -
24/05:30am 2.8 CALM 0 0 1028.6 - 0.0 - - - - - - -
24/05:00am 1.1 WNW 4 5 1028.6 - 0.0 - - - - - - -
24/04:30am 3.3 WNW 5 6 1028.5 - 0.0 - - - - - - -
24/04:00am 3.2 WNW 5 6 1028.3 - 0.0 - - - - - - -
24/03:30am 1.9 WNW 6 7 1028.5 - 0.0 - - - - - - -
24/03:00am 2.6 WNW 2 2 1028.6 - 0.0 - - - - - - -
24/02:30am 4.2 NW 2 3 1028.7 - 0.0 - - - - - - -
24/02:00am 2.9 WNW 4 5 1028.8 - 0.0 - - - - - - -
24/01:30am 5.8 CALM 0 0 1028.8 - 0.0 - - - - - - -
24/01:00am 5.9 WNW 2 2 1028.8 - 0.0 - - - - - - -
24/12:30am 5.9 W 4 5 1028.8 - 0.0 - - - - - - -
24/12:00am 5.8 W 5 6 1028.9 - 0.0 - - - - - - -
 
Date/Time
EST
Temp

°C
Wind Pressure Rain
since 9am
mm
Weather Cloud Vis
km
Sea
Height
m
Swell
Dir
 
Speed
knots
Gust
knots
hPa Trend Height
m
Period
s
Dir
23/11:30pm 6.0 W 5 6 1028.8 - 0.0 - - - - - - -
23/11:00pm 6.4 W 6 7 1028.8 - 0.0 - - - - - - -
23/10:30pm 6.6 W 5 6 1028.8 - 0.0 - - - - - - -
23/10:00pm 6.8 W 5 8 1028.9 - 0.0 - - - - - - -
23/09:30pm 6.9 W 5 7 1028.8 - 0.0 - - - - - - -
23/09:00pm 7.4 W 6 9 1028.9 - 0.0 - - - - - - -
23/08:30pm 7.1 WNW 5 7 1028.7 - 0.0 - - - - - - -
23/08:00pm 7.9 WSW 6 9 1028.5 - 0.0 - - - - - - -
23/07:30pm 8.0 WSW 6 8 1028.5 - 0.0 - - - - - - -
23/07:00pm 8.1 W 5 6 1028.4 - 0.0 - - - - - - -
23/06:30pm 8.5 W 6 7 1028.1 - 0.0 - - - - - - -
23/06:00pm 9.1 WSW 5 7 1027.9 - 0.0 - - - - - - -
23/05:30pm 10.1 WSW 8 11 1027.6 - 0.0 - - - - - - -
23/05:00pm 10.4 WSW 6 10 1027.6 - 0.0 - - - - - - -
23/04:30pm 11.4 WSW 5 9 1027.4 - 0.0 - - - - - - -
23/04:00pm 12.2 SW 6 10 1027.1 - 0.0 - - - - - - -
23/03:30pm 12.9 SW 5 10 1027.2 - 0.0 - - - - - - -
23/03:00pm 13.7 SW 7 11 1026.9 - 0.0 - - - - - - -
23/02:30pm 13.9 SW 8 14 1026.9 - 0.0 - - - - - - -
23/02:00pm 14.0 SW 8 12 1026.9 - 0.0 - - - - - - -
23/01:30pm 14.0 SW 7 12 1027.1 - 0.0 - - - - - - -
23/01:00pm 13.9 SW 5 8 1027.4 - 0.0 - - - - - - -
23/12:30pm 13.6 SW 4 8 1027.4 - 0.0 - - - - - - -
23/12:00pm 12.7 W 4 7 1027.8 - 0.0 - - - - - - -
23/11:30am 12.3 WSW 4 8 1028.0 - 0.0 - - - - - - -
23/11:00am 11.4 WSW 5 10 1028.3 - 0.0 - - - - - - -
23/10:30am 9.8 W 5 9 1028.5 - 0.0 - - - - - - -
23/10:00am 8.7 WNW 4 6 1028.6 - 0.0 - - - - - - -
23/09:30am 6.7 WNW 5 7 1028.6 - 0.0 - - - - - - -
23/09:00am 5.4 W 5 6 1028.5 - 0.0 - - - - - - -
23/08:30am 4.3 W 5 7 1028.3 - 0.0 - - - - - - -
23/08:00am 2.4 WNW 5 7 1028.3 - 0.0 - - - - - - -
23/07:30am 1.1 W 5 6 1028.0 - 0.0 - - - - - - -
23/07:00am 2.1 WNW 5 7 1027.8 - 0.0 - - - - - - -
23/06:30am 3.0 W 5 7 1027.8 - 0.0 - - - - - - -
23/06:00am 4.0 WNW 5 6 1027.7 - 0.0 - - - - - - -
23/05:30am 4.1 W 6 7 1027.4 - 0.0 - - - - - - -
23/05:00am 3.9 WNW 6 7 1027.3 - 0.0 - - - - - - -
23/04:30am 4.0 WNW 6 6 1027.1 - 0.0 - - - - - - -
23/04:00am 4.2 W 5 5 1027.2 - 0.0 - - - - - - -
23/03:30am 4.4 W 5 5 1027.2 - 0.0 - - - - - - -
23/03:00am 4.7 W 5 5 1027.3 - 0.0 - - - - - - -
23/02:30am 4.3 W 5 5 1027.3 - 0.0 - - - - - - -
23/02:00am 4.6 W 5 6 1027.4 - 0.0 - - - - - - -
23/01:30am 5.5 W 6 7 1027.5 - 0.0 - - - - - - -
23/01:00am 6.0 W 5 6 1027.4 - 0.0 - - - - - - -
23/12:30am 6.5 WSW 5 7 1027.6 - 0.0 - - - - - - -
23/12:00am 7.0 WSW 5 6 1027.7 - 0.0 - - - - - - -
 
Date/Time
EST
Temp

°C
Wind Pressure Rain
since 9am
mm
Weather Cloud Vis
km
Sea
Height
m
Swell
Dir
 
Speed
knots
Gust
knots
hPa Trend Height
m
Period
s
Dir
22/11:30pm 7.1 WSW 7 9 1027.7 - 0.0 - - - - - - -
22/11:00pm 7.1 WSW 6 10 1027.8 - 0.0 - - - - - - -
22/10:30pm 7.2 WSW 7 9 1027.9 - 0.0 - - - - - - -
22/10:00pm 6.8 WSW 6 9 1027.8 - 0.0 - - - - - - -
22/09:30pm 7.3 WSW 6 9 1027.7 - 0.0 - - - - - - -
22/09:00pm 7.0 W 5 8 1027.4 - 0.0 - - - - - - -
22/08:30pm 6.9 W 6 7 1027.4 - 0.0 - - - - - - -
22/08:00pm 6.5 WNW 5 7 1027.2 - 0.0 - - - - - - -
22/07:30pm 6.2 WNW 6 7 1027.0 - 0.0 - - - - - - -
22/07:00pm 7.0 WSW 4 4 1026.7 - 0.0 - - - - - - -
22/06:30pm 6.8 W 4 5 1026.6 - 0.0 - - - - - - -
22/06:00pm 7.5 WNW 5 6 1026.5 - 0.0 - - - - - - -
22/05:30pm 8.0 NW 4 5 1026.3 - 0.0 - - - - - - -
22/05:00pm 8.5 NNE 4 5 1026.0 - 0.0 - - - - - - -
22/04:30pm 9.7 NNE 5 6 1026.1 - 0.0 - - - - - - -
22/04:00pm 10.5 NNE 5 6 1026.0 - 0.0 - - - - - - -
22/03:30pm 12.1 NE 3 6 1025.7 - 0.0 - - - - - - -
22/03:00pm 13.4 S 1 3 1025.5 - 0.0 - - - - - - -
22/02:30pm 13.7 W 3 6 1025.4 - 0.0 - - - - - - -
22/02:00pm 13.2 WSW 4 7 1025.6 - 0.0 - - - - - - -
22/01:30pm 12.8 WSW 5 7 1025.7 - 0.0 - - - - - - -
22/01:00pm 12.5 SW 4 6 1026.2 - 0.0 - - - - - - -
22/12:30pm 12.2 WNW 4 7 1026.6 - 0.0 - - - - - - -
22/12:00pm 12.1 SSW 5 7 1027.1 - 0.0 - - - - - - -

Other Formats:

Comma delimited format used in spreadsheet applications
http://www.bom.gov.au/fwo/IDT60701/IDT60701.94987.axf

JavaScript Object Notation format (JSON) in row-major order
http://www.bom.gov.au/fwo/IDT60701/IDT60701.94987.json